createdAt,value
2018-12-01T00:01:45.256Z,6.50
2018-12-01T00:04:12.461Z,6.40
2018-12-01T00:06:39.664Z,6.40
2018-12-01T00:09:06.887Z,6.50
2018-12-01T00:11:34.086Z,6.50
2018-12-01T00:14:01.305Z,6.50
2018-12-01T00:16:28.506Z,6.50
2018-12-01T00:18:55.703Z,6.60
2018-12-01T00:21:22.889Z,6.50
2018-12-01T00:23:50.083Z,6.50
2018-12-01T00:26:17.262Z,6.50
2018-12-01T00:28:44.522Z,6.50
2018-12-01T00:31:11.747Z,6.50
2018-12-01T00:33:38.937Z,6.40
2018-12-01T00:36:06.183Z,6.30
2018-12-01T00:38:33.404Z,6.30
2018-12-01T00:41:00.593Z,6.20
2018-12-01T00:43:28.261Z,6.20
2018-12-01T00:45:55.446Z,6.10
2018-12-01T00:48:22.643Z,6.00
2018-12-01T00:50:49.835Z,5.90
2018-12-01T00:53:17.021Z,5.90
2018-12-01T00:55:44.287Z,5.80
2018-12-01T00:58:11.506Z,5.70
2018-12-01T01:00:38.691Z,5.70
2018-12-01T01:03:05.962Z,5.60
2018-12-01T01:05:33.133Z,5.60
2018-12-01T01:08:00.596Z,5.60
2018-12-01T01:10:28.975Z,5.50
2018-12-01T01:12:56.179Z,5.40
2018-12-01T01:15:23.406Z,5.40
2018-12-01T01:17:50.739Z,5.30
2018-12-01T01:20:19.315Z,5.40
2018-12-01T01:22:46.662Z,5.40
2018-12-01T01:25:14.549Z,5.40
2018-12-01T01:27:41.866Z,5.40
2018-12-01T01:30:24.830Z,5.40
2018-12-01T01:33:03.646Z,5.30
2018-12-01T01:35:30.867Z,5.40
2018-12-01T01:37:58.066Z,5.40
2018-12-01T01:40:25.279Z,5.50
2018-12-01T01:42:52.457Z,5.50
2018-12-01T01:45:19.768Z,5.60
2018-12-01T01:47:47.019Z,5.60
2018-12-01T01:50:17.400Z,5.60
2018-12-01T01:52:44.625Z,5.60
2018-12-01T01:55:11.853Z,5.60
2018-12-01T01:57:39.350Z,5.70
2018-12-01T02:00:15.735Z,5.70
2018-12-01T02:02:44.699Z,5.70
2018-12-01T02:05:11.896Z,5.80
2018-12-01T02:07:39.103Z,5.90
2018-12-01T02:10:07.169Z,5.80
2018-12-01T02:12:34.362Z,5.90
2018-12-01T02:15:01.596Z,5.90
2018-12-01T02:17:28.766Z,5.90
2018-12-01T02:19:55.990Z,5.90
2018-12-01T02:22:23.194Z,5.80
2018-12-01T02:24:50.433Z,5.70
2018-12-01T02:27:17.666Z,5.50
2018-12-01T02:29:44.854Z,5.50
2018-12-01T02:32:12.041Z,5.40
2018-12-01T02:34:39.517Z,5.40
2018-12-01T02:37:06.724Z,5.40
2018-12-01T02:39:33.910Z,5.40
2018-12-01T02:42:01.399Z,5.40
2018-12-01T02:44:40.407Z,5.40
2018-12-01T02:47:08.332Z,5.40
2018-12-01T02:49:35.906Z,5.30
2018-12-01T02:52:03.490Z,5.20
2018-12-01T02:54:30.776Z,5.10
2018-12-01T02:56:57.966Z,5.00
2018-12-01T02:59:25.167Z,5.10
2018-12-01T03:01:52.428Z,5.00
2018-12-01T03:04:19.685Z,5.10
2018-12-01T03:06:46.890Z,5.10
2018-12-01T03:09:14.122Z,5.00
2018-12-01T03:11:41.369Z,5.00
2018-12-01T03:14:08.590Z,5.00
2018-12-01T03:16:35.777Z,4.90
2018-12-01T03:19:03.066Z,4.80
2018-12-01T03:21:30.419Z,4.80
2018-12-01T03:23:57.611Z,4.70
2018-12-01T03:26:24.820Z,4.70
2018-12-01T03:28:52.015Z,4.60
2018-12-01T03:31:19.204Z,4.60
2018-12-01T03:33:46.412Z,4.60
2018-12-01T03:36:13.614Z,4.60
2018-12-01T03:38:40.806Z,4.70
2018-12-01T03:41:08.029Z,4.80
2018-12-01T03:43:35.234Z,4.80
2018-12-01T03:46:02.439Z,4.90
2018-12-01T03:48:29.626Z,4.90
2018-12-01T03:50:56.806Z,5.00
2018-12-01T03:53:24.034Z,5.10
2018-12-01T03:55:51.233Z,5.20
2018-12-01T03:58:18.455Z,5.20
2018-12-01T04:00:45.643Z,5.30
2018-12-01T04:03:12.843Z,5.30
2018-12-01T04:05:40.037Z,5.40
2018-12-01T04:08:07.373Z,5.40
2018-12-01T04:10:34.567Z,5.40
2018-12-01T04:13:08.592Z,5.50
2018-12-01T04:15:35.805Z,5.40
2018-12-01T04:18:03.045Z,5.40
2018-12-01T04:20:30.253Z,5.30
2018-12-01T04:22:57.673Z,5.40
2018-12-01T04:25:24.894Z,5.30
2018-12-01T04:27:52.099Z,5.30
2018-12-01T04:30:20.476Z,5.20
2018-12-01T04:32:47.746Z,5.20
2018-12-01T04:35:18.805Z,5.20
2018-12-01T04:37:48.100Z,5.30
2018-12-01T04:40:15.377Z,5.20
2018-12-01T04:42:43.115Z,5.30
2018-12-01T04:45:10.391Z,5.40
2018-12-01T04:47:37.779Z,5.50
2018-12-01T04:50:06.446Z,5.60
2018-12-01T04:52:33.619Z,5.50
2018-12-01T04:55:00.819Z,5.40
2018-12-01T04:57:28.090Z,5.40
2018-12-01T04:59:55.277Z,5.50
2018-12-01T05:02:22.471Z,5.40
2018-12-01T05:04:49.666Z,5.40
2018-12-01T05:07:16.862Z,5.40
2018-12-01T05:09:44.062Z,5.40
2018-12-01T05:12:11.349Z,5.30
2018-12-01T05:14:38.530Z,5.30
2018-12-01T05:17:05.765Z,5.30
2018-12-01T05:19:32.938Z,5.30
2018-12-01T05:22:00.160Z,5.30
2018-12-01T05:24:27.342Z,5.20
2018-12-01T05:26:54.534Z,5.30
2018-12-01T05:29:21.723Z,5.30
2018-12-01T05:31:48.995Z,5.20
2018-12-01T05:34:16.426Z,5.30
2018-12-01T05:36:43.630Z,5.40
2018-12-01T05:39:10.847Z,5.50
2018-12-01T05:41:38.103Z,5.60
2018-12-01T05:44:05.314Z,5.60
2018-12-01T05:46:32.535Z,5.50
2018-12-01T05:48:59.715Z,5.50
2018-12-01T05:51:26.910Z,5.50
2018-12-01T05:53:54.077Z,5.50
2018-12-01T05:56:21.295Z,5.50
2018-12-01T05:58:48.473Z,5.50
2018-12-01T06:01:15.690Z,5.40
2018-12-01T06:03:42.878Z,5.40
2018-12-01T06:06:10.130Z,5.50
2018-12-01T06:08:37.369Z,5.50
2018-12-01T06:11:04.767Z,5.60
2018-12-01T06:13:31.955Z,5.60
2018-12-01T06:15:59.250Z,5.70
2018-12-01T06:18:26.429Z,5.70
2018-12-01T06:20:54.221Z,5.70
2018-12-01T06:23:21.409Z,5.70
2018-12-01T06:25:48.621Z,5.70
2018-12-01T06:28:15.831Z,5.70
2018-12-01T06:30:43.022Z,5.60
2018-12-01T06:33:10.270Z,5.60
2018-12-01T06:35:37.462Z,5.50
2018-12-01T06:38:04.708Z,5.50
2018-12-01T06:40:31.897Z,5.60
2018-12-01T06:42:59.090Z,5.70
2018-12-01T06:45:26.294Z,5.80
2018-12-01T06:47:53.510Z,5.70
2018-12-01T06:50:21.712Z,5.80
2018-12-01T06:52:49.596Z,5.80
2018-12-01T06:55:16.791Z,5.80
2018-12-01T06:57:45.009Z,5.80
2018-12-01T07:00:17.302Z,5.90
2018-12-01T07:02:45.074Z,5.80
2018-12-01T07:05:13.195Z,5.80
2018-12-01T07:07:40.979Z,5.80
2018-12-01T07:10:17.974Z,5.70
2018-12-01T07:12:50.384Z,5.70
2018-12-01T07:15:22.317Z,5.70
2018-12-01T07:17:49.507Z,5.70
2018-12-01T07:20:16.771Z,5.90
2018-12-01T07:22:43.957Z,5.80
2018-12-01T07:25:11.142Z,5.90
2018-12-01T07:27:38.446Z,5.90
2018-12-01T07:30:12.105Z,5.90
2018-12-01T07:32:39.722Z,5.90
2018-12-01T07:35:07.483Z,5.90
2018-12-01T07:37:35.794Z,5.90
2018-12-01T07:40:05.622Z,5.90
2018-12-01T07:42:32.911Z,5.90
2018-12-01T07:45:31.461Z,6.00
2018-12-01T07:47:58.741Z,6.00
2018-12-01T07:50:26.669Z,6.10
2018-12-01T07:52:54.188Z,6.10
2018-12-01T07:55:21.527Z,6.10
2018-12-01T07:57:48.782Z,6.10
2018-12-01T08:00:16.366Z,6.10
2018-12-01T08:02:45.885Z,6.10
2018-12-01T08:05:13.335Z,6.10
2018-12-01T08:07:40.710Z,6.00
2018-12-01T08:10:09.302Z,6.10
2018-12-01T08:12:36.583Z,6.10
2018-12-01T08:15:07.066Z,6.10
2018-12-01T08:17:34.276Z,6.10
2018-12-01T08:20:01.558Z,6.20
2018-12-01T08:22:28.890Z,6.20
2018-12-01T08:24:56.462Z,6.20
2018-12-01T08:27:23.678Z,6.20
2018-12-01T08:29:50.948Z,6.20
2018-12-01T08:32:18.200Z,6.30
2018-12-01T08:34:45.546Z,6.30
2018-12-01T08:37:12.726Z,6.30
2018-12-01T08:39:39.978Z,6.30
2018-12-01T08:42:07.167Z,6.40
2018-12-01T08:44:34.495Z,6.50
2018-12-01T08:47:01.703Z,6.60
2018-12-01T08:49:28.966Z,6.80
2018-12-01T08:51:56.250Z,6.90
2018-12-01T08:54:23.477Z,7.00
2018-12-01T08:56:50.719Z,7.10
2018-12-01T08:59:18.023Z,7.20
2018-12-01T09:01:45.289Z,7.30
2018-12-01T09:04:12.568Z,7.40
2018-12-01T09:06:39.895Z,7.50
2018-12-01T09:09:07.738Z,7.60
2018-12-01T09:11:34.978Z,7.60
2018-12-01T09:14:02.415Z,7.60
2018-12-01T09:16:29.707Z,7.70
2018-12-01T09:18:56.950Z,7.70
2018-12-01T09:21:24.270Z,7.80
2018-12-01T09:23:51.530Z,7.80
2018-12-01T09:26:18.780Z,7.90
2018-12-01T09:28:46.038Z,7.90
2018-12-01T09:31:13.739Z,8.00
2018-12-01T09:33:40.928Z,8.10
2018-12-01T09:36:08.359Z,8.20
2018-12-01T09:38:35.696Z,8.20
2018-12-01T09:41:02.939Z,8.20
2018-12-01T09:43:30.158Z,8.20
2018-12-01T09:45:57.442Z,8.20
2018-12-01T09:48:24.729Z,8.30
2018-12-01T09:50:52.030Z,8.30
2018-12-01T09:53:19.273Z,8.20
2018-12-01T09:55:46.525Z,8.20
2018-12-01T09:58:13.774Z,8.10
2018-12-01T10:00:41.039Z,8.10
2018-12-01T10:03:08.572Z,8.10
2018-12-01T10:05:35.873Z,8.00
2018-12-01T10:08:03.134Z,8.10
2018-12-01T10:10:30.446Z,8.10
2018-12-01T10:12:57.882Z,8.20
2018-12-01T10:15:28.204Z,8.30
2018-12-01T10:17:55.520Z,8.30
2018-12-01T10:20:25.985Z,8.50
2018-12-01T10:22:53.834Z,8.60
2018-12-01T10:25:21.158Z,8.70
2018-12-01T10:27:48.402Z,8.80
2018-12-01T10:30:17.812Z,8.90
2018-12-01T10:32:45.323Z,8.90
2018-12-01T10:35:13.697Z,8.90
2018-12-01T10:37:41.042Z,8.90
2018-12-01T10:40:09.420Z,8.80
2018-12-01T10:42:36.750Z,8.90
2018-12-01T10:45:08.035Z,9.00
2018-12-01T10:47:35.243Z,8.90
2018-12-01T10:50:02.493Z,9.00
2018-12-01T10:52:29.707Z,9.00
2018-12-01T10:54:56.975Z,9.10
2018-12-01T10:57:24.385Z,9.10
2018-12-01T10:59:51.634Z,9.00
2018-12-01T11:02:25.478Z,9.00
2018-12-01T11:04:53.067Z,9.00
2018-12-01T11:07:20.317Z,9.10
2018-12-01T11:09:47.559Z,9.10
2018-12-01T11:12:14.748Z,9.10
2018-12-01T11:14:43.964Z,9.10
2018-12-01T11:17:11.282Z,9.10
2018-12-01T11:19:38.507Z,9.00
2018-12-01T11:22:05.902Z,9.00
2018-12-01T11:24:33.149Z,9.10
2018-12-01T11:27:00.330Z,9.20
2018-12-01T11:29:27.535Z,9.30
2018-12-01T11:31:54.760Z,9.40
2018-12-01T11:34:22.153Z,9.40
2018-12-01T11:36:49.389Z,9.40
2018-12-01T11:39:16.663Z,9.40
2018-12-01T11:41:43.898Z,9.40
2018-12-01T11:44:11.210Z,9.40
2018-12-01T11:46:38.638Z,9.40
2018-12-01T11:49:05.913Z,9.30
2018-12-01T11:51:33.130Z,9.30
2018-12-01T11:54:00.379Z,9.30
2018-12-01T11:56:27.601Z,9.30
2018-12-01T11:58:54.887Z,9.40
2018-12-01T12:04:04.985Z,9.50
2018-12-01T12:06:32.287Z,9.60
2018-12-01T12:08:59.607Z,9.70
2018-12-01T12:11:26.929Z,9.80
2018-12-01T12:13:54.146Z,9.70
2018-12-01T12:16:21.673Z,9.70
2018-12-01T12:18:48.968Z,9.70
2018-12-01T12:21:16.242Z,9.70
2018-12-01T12:23:43.472Z,9.70
2018-12-01T12:26:10.731Z,9.70
2018-12-01T12:28:37.944Z,9.90
2018-12-01T12:31:05.254Z,9.90
2018-12-01T12:33:32.502Z,9.90
2018-12-01T12:35:59.774Z,10.00
2018-12-01T12:38:26.952Z,10.00
2018-12-01T12:40:54.166Z,10.10
2018-12-01T12:43:21.353Z,10.00
2018-12-01T12:45:48.721Z,10.00
2018-12-01T12:48:15.914Z,10.00
2018-12-01T12:50:43.186Z,9.90
2018-12-01T12:53:10.383Z,9.90
2018-12-01T12:55:37.591Z,9.80
2018-12-01T12:58:05.669Z,9.80
2018-12-01T13:00:33.114Z,9.80
2018-12-01T13:03:05.316Z,9.90
2018-12-01T13:05:34.900Z,9.90
2018-12-01T13:08:02.381Z,10.00
2018-12-01T13:10:29.678Z,10.00
2018-12-01T13:12:56.894Z,10.00
2018-12-01T13:15:24.261Z,10.00
2018-12-01T13:17:51.616Z,10.00
2018-12-01T13:20:23.736Z,9.90
2018-12-01T13:22:55.006Z,9.90
2018-12-01T13:25:22.218Z,10.00
2018-12-01T13:28:08.994Z,10.00
2018-12-01T13:30:39.805Z,10.10
2018-12-01T13:33:07.095Z,10.00
2018-12-01T13:35:34.378Z,10.00
2018-12-01T13:38:01.885Z,10.00
2018-12-01T13:40:29.146Z,10.00
2018-12-01T13:42:56.338Z,10.00
2018-12-01T13:45:23.553Z,10.00
2018-12-01T13:47:50.898Z,9.90
2018-12-01T13:50:19.237Z,9.90
2018-12-01T13:52:53.587Z,9.80
2018-12-01T13:55:20.925Z,9.80
2018-12-01T13:57:48.239Z,9.80
2018-12-01T14:00:16.866Z,9.70
2018-12-01T14:04:08.808Z,9.70
2018-12-01T14:06:36.021Z,9.60
2018-12-01T14:09:05.564Z,9.50
2018-12-01T14:11:32.918Z,9.50
2018-12-01T14:14:00.223Z,9.40
2018-12-01T14:16:27.506Z,9.50
2018-12-01T14:18:54.706Z,9.50
2018-12-01T14:21:21.924Z,9.40
2018-12-01T14:23:49.183Z,9.40
2018-12-01T14:26:16.390Z,9.40
2018-12-01T14:28:43.654Z,9.40
2018-12-01T14:31:11.462Z,9.40
2018-12-01T14:33:39.060Z,9.40
2018-12-01T14:36:06.330Z,9.30
2018-12-01T14:38:33.554Z,9.30
2018-12-01T14:41:00.726Z,9.20
2018-12-01T14:43:27.993Z,9.20
2018-12-01T14:45:55.203Z,9.20
2018-12-01T14:48:22.457Z,9.10
2018-12-01T14:50:49.700Z,9.10
2018-12-01T14:53:17.769Z,9.10
2018-12-01T14:55:45.199Z,9.00
2018-12-01T14:58:12.517Z,9.00
2018-12-01T15:00:39.778Z,9.00
2018-12-01T15:03:07.767Z,9.00
2018-12-01T15:05:35.237Z,9.00
2018-12-01T15:08:02.474Z,9.00
2018-12-01T15:10:29.730Z,9.00
2018-12-01T15:12:57.061Z,9.00
2018-12-01T15:15:25.204Z,8.80
2018-12-01T15:17:52.763Z,8.80
2018-12-01T15:20:20.869Z,8.70
2018-12-01T15:22:49.186Z,8.70
2018-12-01T15:25:17.524Z,8.70
2018-12-01T15:27:44.785Z,8.70
2018-12-01T15:30:19.135Z,8.80
2018-12-01T15:32:49.027Z,8.80
2018-12-01T15:35:16.256Z,8.80
2018-12-01T15:37:44.081Z,8.70
2018-12-01T15:40:13.462Z,8.70
2018-12-01T15:42:40.890Z,8.80
2018-12-01T15:45:10.183Z,8.70
2018-12-01T15:47:37.601Z,8.80
2018-12-01T15:50:07.797Z,8.70
2018-12-01T15:52:35.202Z,8.70
2018-12-01T15:55:02.531Z,8.70
2018-12-01T15:57:29.822Z,8.70
2018-12-01T15:59:57.062Z,8.60
2018-12-01T16:02:24.311Z,8.60
2018-12-01T16:04:51.597Z,8.60
2018-12-01T16:07:18.797Z,8.60
2018-12-01T16:09:46.077Z,8.50
2018-12-01T16:12:13.582Z,8.60
2018-12-01T16:14:41.099Z,8.60
2018-12-01T16:17:08.727Z,8.60
2018-12-01T16:19:36.517Z,8.50
2018-12-01T16:22:04.378Z,8.50
2018-12-01T16:24:31.894Z,8.50
2018-12-01T16:26:59.536Z,8.50
2018-12-01T16:29:26.730Z,8.40
2018-12-01T16:31:54.170Z,8.40
2018-12-01T16:34:21.377Z,8.40
2018-12-01T16:36:48.623Z,8.30
2018-12-01T16:39:15.834Z,8.40
2018-12-01T16:41:43.233Z,8.40
2018-12-01T16:44:10.480Z,8.40
2018-12-01T16:46:37.715Z,8.40
2018-12-01T16:49:05.050Z,8.30
2018-12-01T16:51:32.278Z,8.30
2018-12-01T16:53:59.501Z,8.40
2018-12-01T16:56:26.741Z,8.40
2018-12-01T16:58:53.939Z,8.40
2018-12-01T17:01:21.154Z,8.40
2018-12-01T17:03:48.334Z,8.40
2018-12-01T17:06:17.283Z,8.40
2018-12-01T17:08:44.556Z,8.40
2018-12-01T17:11:11.773Z,8.40
2018-12-01T17:13:38.958Z,8.40
2018-12-01T17:16:06.349Z,8.40
2018-12-01T17:18:33.582Z,8.50
2018-12-01T17:21:00.800Z,8.50
2018-12-01T17:23:28.200Z,8.40
2018-12-01T17:25:55.382Z,8.40
2018-12-01T17:28:22.599Z,8.40
2018-12-01T17:30:50.084Z,8.40
2018-12-01T17:33:17.646Z,8.40
2018-12-01T17:35:45.054Z,8.40
2018-12-01T17:38:13.631Z,8.40
2018-12-01T17:41:00.842Z,8.50
2018-12-01T17:43:31.179Z,8.40
2018-12-01T17:45:58.390Z,8.50
2018-12-01T17:48:25.606Z,8.50
2018-12-01T17:50:52.827Z,8.50
2018-12-01T17:53:20.042Z,8.40
2018-12-01T17:55:47.253Z,8.40
2018-12-01T17:58:14.525Z,8.40
2018-12-01T18:00:41.750Z,8.40
2018-12-01T18:03:08.965Z,8.40
2018-12-01T18:05:39.674Z,8.40
2018-12-01T18:08:09.738Z,8.40
2018-12-01T18:10:36.950Z,8.40
2018-12-01T18:13:04.512Z,8.40
2018-12-01T18:15:31.810Z,8.40
2018-12-01T18:17:59.218Z,8.40
2018-12-01T18:20:26.428Z,8.30
2018-12-01T18:22:56.789Z,8.30
2018-12-01T18:25:24.317Z,8.30
2018-12-01T18:27:53.234Z,8.30
2018-12-01T18:30:23.159Z,8.30
2018-12-01T18:32:50.930Z,8.30
2018-12-01T18:35:18.126Z,8.30
2018-12-01T18:37:45.315Z,8.30
2018-12-01T18:40:16.977Z,8.30
2018-12-01T18:42:44.210Z,8.40
2018-12-01T18:45:12.804Z,8.40
2018-12-01T18:47:40.018Z,8.30
2018-12-01T18:50:11.044Z,8.30
2018-12-01T18:52:38.234Z,8.30
2018-12-01T18:55:10.785Z,8.30
2018-12-01T18:57:37.981Z,8.30
2018-12-01T19:00:11.813Z,8.30
2018-12-01T19:02:39.065Z,8.30
2018-12-01T19:05:06.713Z,8.40
2018-12-01T19:07:33.918Z,8.40
2018-12-01T19:10:01.134Z,8.40
2018-12-01T19:12:28.515Z,8.30
2018-12-01T19:14:55.762Z,8.40
2018-12-01T19:17:22.939Z,8.30
2018-12-01T19:19:50.122Z,8.40
2018-12-01T19:22:17.305Z,8.30
2018-12-01T19:24:44.575Z,8.30
2018-12-01T19:27:11.790Z,8.40
2018-12-01T19:29:39.082Z,8.40
2018-12-01T19:32:06.267Z,8.40
2018-12-01T19:34:33.466Z,8.40
2018-12-01T19:37:00.767Z,8.40
2018-12-01T19:39:27.971Z,8.40
2018-12-01T19:41:55.153Z,8.40
2018-12-01T19:44:22.391Z,8.40
2018-12-01T19:46:49.586Z,8.50
2018-12-01T19:49:16.782Z,8.50
2018-12-01T19:51:43.998Z,8.50
2018-12-01T19:54:11.512Z,8.50
2018-12-01T19:56:38.693Z,8.50
2018-12-01T19:59:05.914Z,8.60
2018-12-01T20:01:33.106Z,8.60
2018-12-01T20:04:00.415Z,8.60
2018-12-01T20:06:27.614Z,8.60
2018-12-01T20:08:54.791Z,8.60
2018-12-01T20:11:21.995Z,8.60
2018-12-01T20:13:49.198Z,8.60
2018-12-01T20:16:29.591Z,8.60
2018-12-01T20:18:56.774Z,8.60
2018-12-01T20:21:24.010Z,8.70
2018-12-01T20:23:51.223Z,8.60
2018-12-01T20:26:18.458Z,8.60
2018-12-01T20:28:45.666Z,8.60
2018-12-01T20:31:12.946Z,8.60
2018-12-01T20:33:40.134Z,8.70
2018-12-01T20:36:15.238Z,8.60
2018-12-01T20:38:52.936Z,8.60
2018-12-01T20:41:20.138Z,8.60
2018-12-01T20:43:47.315Z,8.50
2018-12-01T20:46:14.714Z,8.50
2018-12-01T20:48:41.910Z,8.50
2018-12-01T20:51:09.102Z,8.50
2018-12-01T20:53:36.297Z,8.50
2018-12-01T20:56:09.167Z,8.50
2018-12-01T20:58:43.115Z,8.50
2018-12-01T21:01:10.311Z,8.50
2018-12-01T21:03:37.494Z,8.50
2018-12-01T21:06:05.206Z,8.50
2018-12-01T21:08:32.615Z,8.60
2018-12-01T21:11:01.821Z,8.50
2018-12-01T21:13:29.042Z,8.50
2018-12-01T21:15:56.231Z,8.50
2018-12-01T21:18:23.556Z,8.60
2018-12-01T21:20:50.794Z,8.50
2018-12-01T21:23:17.991Z,8.50
2018-12-01T21:25:45.189Z,8.60
2018-12-01T21:28:13.006Z,8.60
2018-12-01T21:30:40.371Z,8.60
2018-12-01T21:33:10.205Z,8.60
2018-12-01T21:35:37.498Z,8.60
2018-12-01T21:38:08.606Z,8.60
2018-12-01T21:40:35.798Z,8.60
2018-12-01T21:43:03.075Z,8.60
2018-12-01T21:45:30.288Z,8.60
2018-12-01T21:47:57.477Z,8.60
2018-12-01T21:50:24.734Z,8.50
2018-12-01T21:52:53.203Z,8.50
2018-12-01T21:55:20.937Z,8.50
2018-12-01T21:57:55.423Z,8.60
2018-12-01T22:00:28.810Z,8.60
2018-12-01T22:02:57.562Z,8.50
2018-12-01T22:05:28.725Z,8.50
2018-12-01T22:07:55.966Z,8.50
2018-12-01T22:10:23.471Z,8.50
2018-12-01T22:12:50.650Z,8.50
2018-12-01T22:15:18.839Z,8.60
2018-12-01T22:17:46.121Z,8.60
2018-12-01T22:20:15.748Z,8.60
2018-12-01T22:22:42.982Z,8.60
2018-12-01T22:25:10.587Z,8.70
2018-12-01T22:27:38.078Z,8.60
2018-12-01T22:30:15.722Z,8.60
2018-12-01T22:32:43.763Z,8.60
2018-12-01T22:35:12.463Z,8.60
2018-12-01T22:37:39.662Z,8.60
2018-12-01T22:40:14.563Z,8.50
2018-12-01T22:42:41.775Z,8.60
2018-12-01T22:45:09.205Z,8.50
2018-12-01T22:47:36.982Z,8.50
2018-12-01T22:50:15.047Z,8.50
2018-12-01T22:52:42.263Z,8.50
2018-12-01T22:55:11.707Z,8.50
2018-12-01T22:57:39.646Z,8.50
2018-12-01T23:00:13.466Z,8.60
2018-12-01T23:02:40.681Z,8.60
2018-12-01T23:05:07.978Z,8.60
2018-12-01T23:07:35.165Z,8.50
2018-12-01T23:10:03.119Z,8.50
2018-12-01T23:12:30.293Z,8.50
2018-12-01T23:14:57.478Z,8.50
2018-12-01T23:17:24.691Z,8.50
2018-12-01T23:19:51.865Z,8.50
2018-12-01T23:22:19.030Z,8.50
2018-12-01T23:24:46.223Z,8.50
2018-12-01T23:27:13.432Z,8.60
2018-12-01T23:29:40.646Z,8.50
2018-12-01T23:32:07.886Z,8.50
2018-12-01T23:34:35.089Z,8.40
2018-12-01T23:37:02.422Z,8.30
2018-12-01T23:39:29.760Z,8.40
2018-12-01T23:41:57.206Z,8.40
2018-12-01T23:44:28.209Z,8.50
2018-12-01T23:46:55.641Z,8.50
2018-12-01T23:49:22.845Z,8.60
2018-12-01T23:51:50.171Z,8.50
2018-12-01T23:54:18.145Z,8.50
2018-12-01T23:56:45.501Z,8.50
2018-12-01T23:59:12.744Z,8.40
